Detall de PIREP

Printer-friendly versionPDF version

[2013/09/03 07:48:00]
Flight IATA:CT2108
Pilot Number:042
Company ICAO:CAT
Aircraft Type:F100/A
PAX:32
Aircraft Registration:PFJ
Departing Airport: LEVC
Destination Airport: LEMG
Alternate Airport:LEMD
Online: VATSIM
Route:ASTRO UM985 VIBAS
Flight Level:F290
No Slew and time accel
No pause
Crash detect
Detect pilot in Cockpit between each 30 and 45 minutes
07:48 Zero fuel Weight: 81827 Lbs, Fuel Weight: 22687 Lbs
07:48 VATSIM:LEVC 030730Z 32003KT 290V350 9999 FEW035 23/17 Q1023 NOSIG
07:48 VATSIM:LEMG 030730Z 30001KT 9999 FEW010 BKN025 23/18 Q1021 NOSIG
07:49 VOICE CATALONIAN
07:53 Parking Brakes off
07:57 Take-off
07:57 Take off Weight: 104168 Lbs
07:57 Wind: 209º @ 005 Knots Heading: 294º
07:57 POS N39º 29´ 33´´ W000º 29´ 24´´
07:57 Gear Up: 180 Knots
07:57 Flaps:2 at 180 Knots
07:57 Flaps:1 at 197 Knots
07:57 Flaps:0 at 200 Knots
08:12 Wind:302º@074 Knots Heading: 241º Ground Speed: 363 Knots Altitude 28477 ft
08:12 TOC
08:12 Fuel Weight: 20243 Lb
08:12 TOD
08:12 Fuel Weight: 20242 Lb
08:12 TOC
08:12 Fuel Weight: 20237 Lb
08:25 TOD
08:25 Fuel Weight: 19062 Lb
08:27 Wind:294º@050 Knots Heading: 232º Ground Speed: 381 Knots Altitude 26650 ft
08:41 Flaps:1 at 184 Knots
08:42 Wind:000º@000 Knots Heading: 242º Ground Speed: 191 Knots Altitude 3001 ft
08:46 Flaps:2 at 177 Knots
08:46 Gear Down: 163 Knots
08:47 Flaps:3 at 160 Knots
08:50 TouchDown:Rate -313 ft/min Speed: 128 Knots
08:50 VATSIM:LEMG 030830Z 10006KT 070V140 9999 FEW015 BKN020 25/19 Q1022 NOSIG
08:50 Land
08:50 Wind:000º@000 Knots
08:50 Heading: 313º
08:50 Flight Duration: 00:53
08:50 Landing Weight: 99837 Lbs
08:50 POS N36º 40´ 24´´ W004º 29´ 50´´
08:53 Parking brakes on
08:53 Block to Block Duration: 01:00
08:53 Final Fuel: 17799 Lbls
08:53 Spent Fuel: 4887 Lbls
08:53 Flight Length: 282 NM
08:53 TOD Land Length: 108 NM

Exportar CSV

Powered by Drupal - Modified by Danger4k